createdAt,value
2018-06-29T00:00:22.577Z,2.20
2018-06-29T00:02:55.295Z,2.33
2018-06-29T00:05:28.116Z,2.60
2018-06-29T00:08:00.483Z,2.27
2018-06-29T00:10:33.265Z,2.30
2018-06-29T00:13:05.750Z,2.20
2018-06-29T00:15:38.586Z,2.47
2018-06-29T00:18:10.934Z,3.00
2018-06-29T00:20:44.023Z,2.63
2018-06-29T00:23:16.390Z,2.00
2018-06-29T00:25:48.592Z,2.30
2018-06-29T00:28:21.211Z,2.30
2018-06-29T00:30:53.701Z,2.20
2018-06-29T00:33:26.146Z,2.40
2018-06-29T00:35:58.330Z,2.17
2018-06-29T00:38:31.235Z,2.37
2018-06-29T00:41:03.384Z,2.93
2018-06-29T00:43:35.926Z,2.33
2018-06-29T00:46:08.457Z,2.20
2018-06-29T00:48:40.958Z,2.37
2018-06-29T00:51:14.339Z,2.10
2018-06-29T00:53:46.699Z,2.40
2018-06-29T00:56:19.264Z,2.50
2018-06-29T00:58:51.695Z,3.20
2018-06-29T01:01:24.012Z,2.53
2018-06-29T01:03:56.430Z,2.47
2018-06-29T01:06:28.792Z,2.97
2018-06-29T01:09:01.546Z,2.50
2018-06-29T01:11:33.905Z,3.63
2018-06-29T01:14:06.420Z,2.57
2018-06-29T01:16:41.724Z,2.43
2018-06-29T01:19:14.160Z,2.70
2018-06-29T01:21:46.307Z,2.63
2018-06-29T01:24:18.868Z,2.80
2018-06-29T01:26:51.829Z,2.60
2018-06-29T01:29:24.274Z,2.43
2018-06-29T01:31:56.601Z,2.50
2018-06-29T01:34:29.161Z,2.83
2018-06-29T01:37:01.686Z,2.50
2018-06-29T01:39:34.104Z,3.10
2018-06-29T01:42:06.499Z,3.13
2018-06-29T01:44:38.854Z,2.47
2018-06-29T01:47:11.222Z,2.87
2018-06-29T01:49:43.799Z,3.07
2018-06-29T01:52:16.616Z,3.20
2018-06-29T01:54:49.162Z,3.43
2018-06-29T01:57:21.376Z,2.97
2018-06-29T01:59:54.785Z,3.70
2018-06-29T02:02:27.191Z,2.50
2018-06-29T02:05:00.198Z,3.37
2018-06-29T02:07:32.762Z,3.40
2018-06-29T02:10:05.532Z,3.77
2018-06-29T02:12:38.127Z,3.40
2018-06-29T02:15:10.674Z,3.57
2018-06-29T02:17:43.250Z,2.87
2018-06-29T02:20:15.410Z,2.60
2018-06-29T02:22:48.039Z,3.23
2018-06-29T02:25:20.515Z,2.70
2018-06-29T02:27:52.931Z,2.67
2018-06-29T02:30:25.386Z,2.63
2018-06-29T02:32:58.171Z,3.03
2018-06-29T02:35:30.622Z,2.67
2018-06-29T02:38:02.994Z,2.70
2018-06-29T02:40:35.514Z,3.20
2018-06-29T02:43:08.351Z,2.90
2018-06-29T02:45:40.887Z,2.80
2018-06-29T02:48:13.458Z,2.83
2018-06-29T02:50:45.593Z,3.63
2018-06-29T02:53:18.773Z,3.13
2018-06-29T02:55:51.371Z,3.60
2018-06-29T02:58:23.985Z,3.17
2018-06-29T03:00:56.178Z,3.57
2018-06-29T03:03:28.567Z,3.10
2018-06-29T03:06:01.262Z,2.70
2018-06-29T03:08:33.667Z,2.50
2018-06-29T03:11:06.020Z,2.80
2018-06-29T03:13:38.610Z,2.50
2018-06-29T03:16:10.992Z,2.90
2018-06-29T03:18:43.251Z,2.83
2018-06-29T03:21:15.721Z,2.90
2018-06-29T03:23:48.360Z,2.90
2018-06-29T03:26:20.782Z,3.07
2018-06-29T03:28:53.462Z,2.73
2018-06-29T03:31:25.576Z,3.17
2018-06-29T03:33:58.008Z,3.10
2018-06-29T03:36:30.550Z,2.90
2018-06-29T03:39:03.202Z,3.07
2018-06-29T03:41:35.943Z,2.77
2018-06-29T03:44:08.413Z,3.30
2018-06-29T03:46:40.893Z,2.87
2018-06-29T03:49:13.278Z,3.00
2018-06-29T03:51:45.785Z,2.83
2018-06-29T03:54:18.373Z,2.97
2018-06-29T03:56:50.644Z,3.67
2018-06-29T03:59:23.268Z,2.70
2018-06-29T04:01:55.219Z,3.27
2018-06-29T04:04:27.602Z,2.90
2018-06-29T04:07:00.171Z,2.90
2018-06-29T04:09:32.680Z,3.43
2018-06-29T04:12:05.081Z,2.83
2018-06-29T04:14:37.506Z,3.63
2018-06-29T04:17:10.612Z,2.60
2018-06-29T04:19:43.098Z,4.17
2018-06-29T04:22:15.554Z,3.40
2018-06-29T04:24:47.989Z,2.70
2018-06-29T04:27:19.186Z,6.43
2018-06-29T04:29:51.672Z,2.70
2018-06-29T04:32:24.191Z,3.40
2018-06-29T04:34:56.737Z,3.03
2018-06-29T04:37:29.133Z,3.00
2018-06-29T04:40:01.508Z,2.80
2018-06-29T04:42:34.047Z,3.07
2018-06-29T04:45:06.846Z,3.10
2018-06-29T04:47:39.477Z,3.30
2018-06-29T04:50:12.038Z,3.10
2018-06-29T04:52:44.782Z,2.87
2018-06-29T04:55:17.301Z,3.33
2018-06-29T04:57:49.833Z,2.80
2018-06-29T05:00:21.763Z,3.10
2018-06-29T05:02:54.969Z,3.17
2018-06-29T05:05:27.796Z,3.00
2018-06-29T05:08:00.896Z,3.60
2018-06-29T05:10:33.288Z,3.10
2018-06-29T05:13:06.068Z,3.57
2018-06-29T05:15:38.879Z,3.37
2018-06-29T05:18:11.547Z,3.87
2018-06-29T05:20:43.512Z,3.50
2018-06-29T05:23:15.956Z,3.40
2018-06-29T05:25:48.387Z,3.37
2018-06-29T05:28:20.705Z,2.90
2018-06-29T05:30:52.873Z,2.60
2018-06-29T05:33:25.421Z,3.13
2018-06-29T05:35:57.800Z,3.03
2018-06-29T05:38:29.731Z,3.50
2018-06-29T05:41:02.258Z,3.60
2018-06-29T05:43:35.670Z,3.23
2018-06-29T05:46:08.286Z,3.40
2018-06-29T05:48:40.747Z,3.27
2018-06-29T05:51:11.755Z,3.60
2018-06-29T05:53:44.799Z,3.43
2018-06-29T05:56:17.527Z,3.60
2018-06-29T05:58:50.164Z,4.60
2018-06-29T06:01:22.649Z,3.30
2018-06-29T06:03:55.309Z,4.27
2018-06-29T06:06:27.452Z,4.20
2018-06-29T06:09:00.242Z,3.70
2018-06-29T06:11:32.814Z,3.30
2018-06-29T06:14:05.190Z,3.80
2018-06-29T06:16:37.698Z,4.27
2018-06-29T06:19:19.596Z,3.30
2018-06-29T06:21:52.201Z,4.47
2018-06-29T06:24:24.856Z,3.93
2018-06-29T06:26:57.556Z,4.13
2018-06-29T06:29:30.231Z,3.80
2018-06-29T06:32:03.001Z,3.40
2018-06-29T06:34:35.870Z,3.40
2018-06-29T06:37:08.998Z,3.20
2018-06-29T06:39:41.601Z,3.30
2018-06-29T06:42:13.922Z,3.53
2018-06-29T06:44:46.238Z,3.60
2018-06-29T06:47:18.854Z,3.80
2018-06-29T06:49:52.486Z,3.87
2018-06-29T06:52:24.652Z,3.40
2018-06-29T06:54:57.251Z,3.50
2018-06-29T06:57:29.438Z,3.60
2018-06-29T07:00:01.690Z,3.30
2018-06-29T07:02:34.221Z,3.57
2018-06-29T07:05:06.808Z,3.80
2018-06-29T07:07:39.169Z,3.90
2018-06-29T07:10:12.641Z,3.30
2018-06-29T07:12:45.088Z,3.70
2018-06-29T07:15:17.754Z,4.13
2018-06-29T07:17:50.108Z,3.80
2018-06-29T07:20:21.284Z,3.87
2018-06-29T07:22:54.022Z,4.07
2018-06-29T07:25:26.374Z,4.23
2018-06-29T07:27:58.871Z,3.60
2018-06-29T07:30:31.469Z,4.00
2018-06-29T07:33:03.838Z,4.67
2018-06-29T07:35:36.262Z,4.10
2018-06-29T07:38:08.641Z,3.77
2018-06-29T07:40:41.077Z,4.00
2018-06-29T07:43:13.317Z,3.70
2018-06-29T07:45:45.924Z,3.23
2018-06-29T07:48:18.450Z,3.60
2018-06-29T07:50:51.101Z,4.00
2018-06-29T07:53:25.792Z,3.40
2018-06-29T07:55:58.821Z,3.73
2018-06-29T07:58:31.063Z,3.70
2018-06-29T08:01:05.262Z,3.10
2018-06-29T08:03:37.743Z,3.47
2018-06-29T08:06:09.952Z,3.73
2018-06-29T08:08:42.055Z,3.83
2018-06-29T08:11:14.632Z,3.70
2018-06-29T08:13:47.432Z,3.67
2018-06-29T08:16:19.783Z,3.77
2018-06-29T08:18:52.319Z,3.80
2018-06-29T08:21:24.544Z,4.00
2018-06-29T08:23:56.860Z,4.07
2018-06-29T08:26:30.230Z,4.47
2018-06-29T08:29:02.596Z,4.13
2018-06-29T08:31:34.724Z,3.73
2018-06-29T08:34:07.390Z,4.47
2018-06-29T08:36:38.678Z,4.20
2018-06-29T08:39:11.421Z,4.60
2018-06-29T08:41:43.846Z,3.93
2018-06-29T08:44:16.727Z,4.70
2018-06-29T08:46:49.195Z,5.17
2018-06-29T08:49:21.528Z,4.73
2018-06-29T08:51:53.942Z,5.27
2018-06-29T08:54:26.752Z,5.57
2018-06-29T08:56:59.248Z,5.23
2018-06-29T08:59:31.641Z,5.87
2018-06-29T09:02:03.991Z,5.70
2018-06-29T09:04:36.177Z,5.80
2018-06-29T09:07:08.914Z,5.80
2018-06-29T09:09:41.427Z,5.60
2018-06-29T09:12:14.239Z,6.30
2018-06-29T09:14:46.753Z,5.27
2018-06-29T09:17:19.140Z,6.20
2018-06-29T09:19:51.552Z,5.90
2018-06-29T09:22:23.826Z,5.30
2018-06-29T09:24:57.492Z,5.80
2018-06-29T09:27:29.679Z,5.47
2018-06-29T09:30:02.281Z,6.33
2018-06-29T09:32:34.798Z,5.13
2018-06-29T09:35:07.403Z,4.87
2018-06-29T09:37:39.763Z,5.20
2018-06-29T09:40:12.343Z,5.40
2018-06-29T09:42:44.516Z,6.00
2018-06-29T09:45:16.931Z,5.73
2018-06-29T09:47:49.286Z,5.50
2018-06-29T09:50:21.837Z,5.70
2018-06-29T09:52:54.405Z,6.60
2018-06-29T09:55:26.939Z,5.77
2018-06-29T09:57:59.089Z,6.00
2018-06-29T10:00:33.600Z,5.40
2018-06-29T10:03:06.134Z,6.67
2018-06-29T10:05:38.635Z,5.93
2018-06-29T10:08:11.030Z,6.00
2018-06-29T10:10:43.168Z,5.40
2018-06-29T10:13:15.716Z,6.60
2018-06-29T10:15:48.275Z,6.30
2018-06-29T10:18:20.861Z,7.00
2018-06-29T10:20:53.325Z,6.63
2018-06-29T10:23:25.570Z,6.60
2018-06-29T10:25:58.029Z,7.00
2018-06-29T10:28:30.706Z,6.70
2018-06-29T10:31:03.138Z,7.10
2018-06-29T10:33:35.324Z,7.00
2018-06-29T10:36:07.920Z,7.10
2018-06-29T10:38:40.430Z,6.83
2018-06-29T10:41:12.703Z,6.27
2018-06-29T10:43:44.812Z,6.50
2018-06-29T10:46:17.247Z,7.10
2018-06-29T10:48:49.312Z,6.17
2018-06-29T10:51:22.514Z,6.50
2018-06-29T10:53:54.890Z,5.93
2018-06-29T10:56:27.093Z,5.47
2018-06-29T10:58:59.820Z,5.63
2018-06-29T11:01:32.217Z,5.77
2018-06-29T11:04:04.601Z,6.00
2018-06-29T11:06:36.736Z,5.93
2018-06-29T11:09:11.776Z,6.43
2018-06-29T11:11:44.204Z,5.67
2018-06-29T11:14:16.737Z,6.43
2018-06-29T11:16:49.204Z,6.20
2018-06-29T11:19:21.462Z,6.00
2018-06-29T11:21:54.054Z,6.07
2018-06-29T11:24:26.655Z,5.60
2018-06-29T11:26:59.218Z,5.40
2018-06-29T11:29:31.974Z,6.27
2018-06-29T11:32:04.225Z,5.77
2018-06-29T11:34:36.532Z,5.07
2018-06-29T11:37:08.885Z,6.27
2018-06-29T11:39:41.107Z,5.70
2018-06-29T11:42:13.642Z,6.23
2018-06-29T11:44:46.212Z,6.37
2018-06-29T11:47:18.388Z,6.40
2018-06-29T11:49:50.923Z,5.80
2018-06-29T11:52:23.697Z,6.47
2018-06-29T11:54:56.859Z,7.27
2018-06-29T11:57:29.537Z,7.00
2018-06-29T12:00:02.044Z,5.90
2018-06-29T12:02:34.719Z,6.47
2018-06-29T12:05:07.023Z,6.03
2018-06-29T12:07:39.601Z,6.10
2018-06-29T12:10:12.156Z,6.67
2018-06-29T12:12:44.518Z,6.57
2018-06-29T12:15:17.517Z,6.97
2018-06-29T12:17:50.175Z,7.20
2018-06-29T12:20:22.354Z,7.07
2018-06-29T12:22:54.828Z,6.00
2018-06-29T12:25:27.020Z,5.90
2018-06-29T12:27:59.531Z,6.40
2018-06-29T12:30:32.043Z,6.13
2018-06-29T12:33:04.645Z,6.20
2018-06-29T12:35:37.181Z,6.33
2018-06-29T12:38:09.368Z,6.93
2018-06-29T12:40:41.874Z,6.47
2018-06-29T12:43:14.900Z,6.43
2018-06-29T12:45:47.242Z,6.90
2018-06-29T12:48:19.702Z,6.83
2018-06-29T12:50:52.054Z,6.37
2018-06-29T12:53:24.245Z,7.07
2018-06-29T12:55:56.809Z,7.07
2018-06-29T12:58:29.206Z,6.23
2018-06-29T13:01:01.573Z,6.30
2018-06-29T13:03:33.919Z,7.27
2018-06-29T13:06:06.541Z,6.73
2018-06-29T13:08:39.320Z,6.13
2018-06-29T13:11:11.821Z,6.53
2018-06-29T13:13:44.388Z,6.20
2018-06-29T13:16:17.001Z,5.90
2018-06-29T13:18:49.371Z,6.80
2018-06-29T13:21:21.579Z,5.77
2018-06-29T13:23:53.935Z,6.83
2018-06-29T13:26:26.248Z,6.77
2018-06-29T13:28:58.846Z,6.40
2018-06-29T13:31:31.493Z,5.73
2018-06-29T13:34:03.841Z,6.00
2018-06-29T13:36:36.499Z,7.00
2018-06-29T13:39:11.893Z,6.23
2018-06-29T13:41:44.291Z,6.23
2018-06-29T13:44:16.815Z,7.53
2018-06-29T13:46:48.917Z,7.00
2018-06-29T13:49:21.336Z,6.03
2018-06-29T13:51:53.683Z,5.90
2018-06-29T13:54:26.120Z,5.80
2018-06-29T13:56:58.526Z,6.30
2018-06-29T13:59:29.763Z,6.33
2018-06-29T14:02:02.346Z,5.87
2018-06-29T14:04:34.709Z,6.10
2018-06-29T14:07:07.108Z,5.40
2018-06-29T14:09:39.306Z,5.97
2018-06-29T14:12:11.805Z,5.90
2018-06-29T14:14:44.174Z,5.93
2018-06-29T14:17:16.561Z,5.60
2018-06-29T14:19:49.161Z,4.27
2018-06-29T14:22:21.898Z,5.23
2018-06-29T14:24:54.379Z,5.07
2018-06-29T14:27:26.451Z,4.10
2018-06-29T14:29:58.982Z,4.83
2018-06-29T14:32:31.828Z,5.00
2018-06-29T14:35:04.242Z,4.97
2018-06-29T14:37:36.603Z,5.03
2018-06-29T14:40:08.957Z,4.30
2018-06-29T14:42:41.329Z,4.33
2018-06-29T14:45:14.009Z,4.20
2018-06-29T14:47:46.336Z,5.20
2018-06-29T14:50:18.735Z,5.00
2018-06-29T14:52:51.490Z,5.43
2018-06-29T14:55:24.407Z,5.10
2018-06-29T14:57:56.549Z,5.90
2018-06-29T15:00:28.940Z,4.70
2018-06-29T15:03:01.359Z,4.70
2018-06-29T15:05:33.917Z,3.93
2018-06-29T15:08:06.259Z,4.00
2018-06-29T15:10:38.677Z,3.60
2018-06-29T15:13:11.021Z,4.40
2018-06-29T15:15:43.200Z,4.37
2018-06-29T15:18:15.896Z,4.00
2018-06-29T15:20:48.156Z,4.70
2018-06-29T15:23:20.534Z,3.70
2018-06-29T15:25:52.832Z,3.60
2018-06-29T15:28:25.421Z,3.70
2018-06-29T15:30:57.835Z,3.80
2018-06-29T15:33:30.758Z,4.90
2018-06-29T15:36:03.163Z,4.50
2018-06-29T15:38:35.391Z,4.40
2018-06-29T15:41:07.912Z,5.10
2018-06-29T15:43:40.292Z,4.40
2018-06-29T15:46:12.772Z,3.90
2018-06-29T15:48:45.192Z,4.20
2018-06-29T15:51:17.426Z,4.13
2018-06-29T15:53:49.770Z,4.27
2018-06-29T15:56:22.317Z,4.37
2018-06-29T15:58:54.699Z,3.90
2018-06-29T16:01:27.277Z,4.20
2018-06-29T16:03:59.938Z,4.10
2018-06-29T16:06:32.321Z,3.40
2018-06-29T16:09:05.350Z,7.43
2018-06-29T16:11:37.845Z,4.10
2018-06-29T16:14:10.040Z,4.43
2018-06-29T16:16:42.143Z,4.57
2018-06-29T16:19:16.117Z,4.07
2018-06-29T16:21:48.275Z,5.80
2018-06-29T16:24:20.537Z,4.10
2018-06-29T18:03:18.288Z,3.90
2018-06-29T18:05:54.347Z,3.50
2018-06-29T18:08:30.725Z,4.33
2018-06-29T18:11:06.185Z,4.63
2018-06-29T18:13:44.135Z,4.00
2018-06-29T18:16:21.436Z,5.63
2018-06-29T18:18:58.915Z,5.37
2018-06-29T18:21:36.382Z,5.60
2018-06-29T18:24:11.780Z,5.87
2018-06-29T18:26:46.525Z,6.47
2018-06-29T18:29:22.282Z,4.90
2018-06-29T18:31:57.869Z,4.30
2018-06-29T18:34:33.141Z,5.07
2018-06-29T18:37:08.543Z,4.57
2018-06-29T18:39:43.060Z,4.17
2018-06-29T18:42:19.929Z,4.53
2018-06-29T18:44:56.522Z,4.57
2018-06-29T18:47:29.480Z,3.73
2018-06-29T18:50:03.964Z,4.43
2018-06-29T18:52:38.943Z,4.10
2018-06-29T18:55:15.082Z,3.83
2018-06-29T18:57:50.609Z,3.87
2018-06-29T19:00:26.416Z,4.43
2018-06-29T19:03:01.141Z,3.83
2018-06-29T19:05:35.750Z,3.83
2018-06-29T19:08:11.087Z,3.97
2018-06-29T19:10:46.892Z,3.77
2018-06-29T19:13:21.308Z,4.47
2018-06-29T19:15:56.381Z,4.60
2018-06-29T19:18:33.268Z,4.40
2018-06-29T19:21:09.880Z,3.70
2018-06-29T19:23:48.125Z,3.77
2018-06-29T19:26:26.815Z,3.73
2018-06-29T19:29:15.830Z,4.83
2018-06-29T19:31:50.763Z,3.63
2018-06-29T19:34:26.083Z,3.90
2018-06-29T19:37:01.778Z,4.60
2018-06-29T19:39:44.367Z,4.33
2018-06-29T19:42:20.961Z,4.10
2018-06-29T19:44:56.285Z,6.10
2018-06-29T19:47:33.475Z,4.40
2018-06-29T19:50:13.713Z,4.13
2018-06-29T19:52:53.951Z,4.40
2018-06-29T19:55:31.722Z,4.23
2018-06-29T19:58:06.328Z,4.17
2018-06-29T20:00:45.642Z,4.20
2018-06-29T20:03:24.513Z,4.20
2018-06-29T20:05:59.730Z,4.10
2018-06-29T20:08:35.762Z,4.20
2018-06-29T20:11:10.599Z,3.87
2018-06-29T20:13:45.292Z,4.50
2018-06-29T20:16:18.674Z,4.57
2018-06-29T20:18:51.201Z,4.40
2018-06-29T20:21:23.728Z,4.23
2018-06-29T20:23:56.164Z,4.57
2018-06-29T20:26:29.752Z,4.67
2018-06-29T20:29:02.552Z,5.73
2018-06-29T20:31:35.348Z,4.20
2018-06-29T20:34:07.694Z,4.80
2018-06-29T20:36:40.435Z,4.03
2018-06-29T20:39:14.059Z,4.20
2018-06-29T20:41:46.791Z,4.20
2018-06-29T20:44:19.365Z,3.57
2018-06-29T20:46:51.810Z,4.40
2018-06-29T20:49:23.950Z,3.70
2018-06-29T20:51:56.502Z,4.00
2018-06-29T20:54:29.492Z,3.33
2018-06-29T20:57:01.885Z,3.40
2018-06-29T20:59:34.049Z,4.03
2018-06-29T21:02:06.639Z,3.23
2018-06-29T21:04:39.276Z,2.90
2018-06-29T21:07:11.907Z,3.00
2018-06-29T21:09:44.242Z,3.30
2018-06-29T21:12:16.588Z,2.70
2018-06-29T21:14:49.862Z,3.07
2018-06-29T21:17:21.976Z,2.93
2018-06-29T21:19:54.359Z,2.50
2018-06-29T21:22:26.593Z,2.77
2018-06-29T21:24:59.094Z,2.60
2018-06-29T21:27:32.671Z,2.30
2018-06-29T21:30:05.617Z,2.30
2018-06-29T21:32:37.867Z,2.53
2018-06-29T21:35:10.430Z,2.20
2018-06-29T21:37:42.833Z,2.83
2018-06-29T21:40:15.346Z,2.53
2018-06-29T21:42:48.349Z,2.17
2018-06-29T21:45:20.939Z,2.00
2018-06-29T21:47:53.529Z,2.20
2018-06-29T21:50:26.078Z,2.07
2018-06-29T21:52:58.671Z,2.30
2018-06-29T21:55:31.803Z,1.90
2018-06-29T21:58:05.081Z,1.67
2018-06-29T22:00:43.753Z,1.90
2018-06-29T22:03:16.346Z,1.90
2018-06-29T22:05:48.594Z,2.03
2018-06-29T22:08:21.243Z,2.03
2018-06-29T22:10:53.678Z,1.43
2018-06-29T22:13:26.026Z,2.07
2018-06-29T22:15:58.236Z,2.00
2018-06-29T22:18:30.558Z,1.97
2018-06-29T22:21:03.069Z,1.97
2018-06-29T22:23:35.225Z,1.90
2018-06-29T22:26:07.600Z,2.30
2018-06-29T22:28:40.400Z,1.80
2018-06-29T22:31:13.035Z,1.90
2018-06-29T22:33:45.211Z,2.10
2018-06-29T22:36:17.588Z,1.80
2018-06-29T22:38:49.949Z,2.00
2018-06-29T22:41:22.425Z,2.00
2018-06-29T22:43:54.821Z,2.67
2018-06-29T22:46:27.035Z,2.10
2018-06-29T22:48:59.768Z,2.00
2018-06-29T22:51:32.160Z,2.13
2018-06-29T22:54:04.723Z,2.53
2018-06-29T22:56:37.307Z,2.43
2018-06-29T22:59:09.835Z,2.70
2018-06-29T23:01:42.441Z,2.60
2018-06-29T23:04:18.240Z,2.17
2018-06-29T23:06:50.564Z,2.33
2018-06-29T23:09:23.198Z,2.70
2018-06-29T23:11:55.777Z,2.77
2018-06-29T23:14:28.562Z,2.70
2018-06-29T23:17:01.305Z,2.33
2018-06-29T23:19:34.517Z,2.20
2018-06-29T23:22:07.165Z,2.47
2018-06-29T23:24:39.472Z,2.70
2018-06-29T23:27:12.723Z,1.90
2018-06-29T23:29:45.396Z,2.03
2018-06-29T23:32:17.773Z,1.60
2018-06-29T23:34:50.409Z,2.10
2018-06-29T23:37:23.587Z,2.30
2018-06-29T23:39:56.176Z,1.80
2018-06-29T23:42:28.925Z,2.07
2018-06-29T23:45:01.308Z,1.70
2018-06-29T23:47:33.294Z,2.27
2018-06-29T23:50:05.648Z,1.83
2018-06-29T23:52:37.865Z,2.13
2018-06-29T23:55:10.746Z,1.87
2018-06-29T23:57:43.208Z,2.10
